Time;durP1;ratioP1;P1;durP2;ratioP2;P2;SDS_P1;SDS_P2;PMS_P1;PMS_P2;Temp;Humidity;BMP_temperature;BMP_pressure;BME280_temperature;BME280_humidity;BME280_pressure;Samples;Min_cycle;Max_cycle;Signal;HPM_P1;HPM_P2
2022/02/17 00:00:12;;;;;;;47.38;39.22;;;;;;;3.60;100.00;95986.78;5086288;28;20024;-61
2022/02/17 00:02:38;;;;;;;42.65;36.15;;;;;;;3.57;100.00;95984.38;5092018;28;20073;-61
2022/02/17 00:05:04;;;;;;;43.75;35.03;;;;;;;3.71;100.00;95983.56;5081842;28;20036;-61
2022/02/17 00:07:29;;;;;;;41.67;35.50;;;;;;;3.55;100.00;95986.25;5090666;28;20549;-62
2022/02/17 00:09:55;;;;;;;50.15;40.35;;;;;;;3.52;100.00;95987.25;5086396;28;20036;-61
2022/02/17 00:12:20;;;;;;;58.05;46.83;;;;;;;3.50;100.00;95991.72;5092986;28;20070;-61
2022/02/17 00:14:46;;;;;;;63.35;51.00;;;;;;;3.65;100.00;96004.75;5089045;28;20070;-61
2022/02/17 00:17:11;;;;;;;55.08;42.38;;;;;;;3.62;100.00;96013.59;5082679;28;20037;-61
2022/02/17 00:19:36;;;;;;;51.25;41.35;;;;;;;3.62;100.00;96008.38;5084633;28;20403;-61
2022/02/17 00:22:02;;;;;;;45.50;35.83;;;;;;;3.64;100.00;96014.31;5086444;28;20024;-62
2022/02/17 00:24:27;;;;;;;41.08;33.30;;;;;;;3.70;100.00;96016.59;5085451;28;20039;-61
2022/02/17 00:26:53;;;;;;;43.25;33.85;;;;;;;3.70;100.00;96013.97;5083030;28;20035;-61
2022/02/17 00:29:18;;;;;;;48.58;35.45;;;;;;;3.65;100.00;96026.44;5087556;28;20079;-62
2022/02/17 00:31:43;;;;;;;51.35;34.58;;;;;;;3.60;100.00;96017.22;5086502;28;20028;-61
2022/02/17 00:34:10;;;;;;;46.75;34.20;;;;;;;3.53;100.00;96017.56;5087421;28;20032;-61
2022/02/17 00:36:36;;;;;;;44.42;33.20;;;;;;;3.51;100.00;96014.22;5086436;28;20068;-61
2022/02/17 00:39:03;;;;;;;50.95;35.42;;;;;;;3.51;100.00;96013.38;5068515;28;20399;-61
2022/02/17 00:41:28;;;;;;;47.55;36.13;;;;;;;3.50;100.00;96009.94;5090981;28;20047;-61
2022/02/17 00:43:54;;;;;;;60.45;37.88;;;;;;;3.49;100.00;96002.22;5086218;28;20488;-61
2022/02/17 00:46:20;;;;;;;52.53;37.92;;;;;;;3.50;100.00;96003.91;5078415;28;20040;-61
2022/02/17 00:48:47;;;;;;;54.80;37.83;;;;;;;3.49;100.00;95999.63;5085499;28;20032;-61
2022/02/17 00:51:13;;;;;;;47.72;37.45;;;;;;;3.49;100.00;95990.03;5073166;28;20040;-61
2022/02/17 00:53:38;;;;;;;48.83;38.17;;;;;;;3.48;100.00;95985.75;5089996;28;20043;-61
2022/02/17 00:56:04;;;;;;;44.92;33.60;;;;;;;3.49;100.00;95978.81;5085831;28;20185;-61
2022/02/17 00:58:29;;;;;;;47.50;36.10;;;;;;;3.50;100.00;95975.28;5081585;28;20032;-61
2022/02/17 01:00:54;;;;;;;46.10;34.72;;;;;;;3.50;100.00;95970.06;5083740;28;20395;-61
2022/02/17 01:03:20;;;;;;;58.97;41.72;;;;;;;3.54;100.00;95976.75;5089980;28;20125;-61
2022/02/17 01:05:45;;;;;;;52.53;37.42;;;;;;;3.56;100.00;95974.91;5086774;28;20043;-61
2022/02/17 01:08:11;;;;;;;57.65;37.50;;;;;;;3.58;100.00;95970.44;5084703;28;20043;-61
2022/02/17 01:10:36;;;;;;;57.10;38.10;;;;;;;3.64;100.00;95962.25;5080177;28;20111;-61
2022/02/17 01:13:02;;;;;;;69.95;37.85;;;;;;;3.56;100.00;95959.28;5083813;28;20398;-61
2022/02/17 01:15:28;;;;;;;50.17;36.53;;;;;;;3.55;100.00;95960.22;5086912;28;20059;-61
2022/02/17 01:17:53;;;;;;;59.10;37.90;;;;;;;3.53;100.00;95962.88;5084782;28;20127;-62
2022/02/17 01:20:19;;;;;;;56.95;38.20;;;;;;;3.54;100.00;95962.00;5082933;28;20103;-61
2022/02/17 01:22:45;;;;;;;51.30;36.05;;;;;;;3.55;100.00;95968.03;5088052;28;20032;-62
2022/02/17 01:25:14;;;;;;;52.88;36.85;;;;;;;3.54;100.00;95988.03;5085458;28;20039;-62
2022/02/17 01:27:40;;;;;;;50.75;36.78;;;;;;;3.55;100.00;95994.06;5084043;28;20513;-61
2022/02/17 01:30:06;;;;;;;54.15;39.00;;;;;;;3.53;100.00;95995.91;5084039;28;20029;-61
2022/02/17 01:32:31;;;;;;;48.90;34.38;;;;;;;3.55;100.00;95999.25;5088136;28;20047;-61
2022/02/17 01:34:57;;;;;;;43.20;33.45;;;;;;;3.55;100.00;95996.66;5086254;28;20488;-62
2022/02/17 01:37:23;;;;;;;39.15;29.30;;;;;;;3.61;100.00;96003.28;5085618;28;20028;-62
2022/02/17 01:39:49;;;;;;;35.20;27.17;;;;;;;3.68;100.00;96013.25;5079825;28;20020;-62
2022/02/17 01:42:14;;;;;;;36.80;31.17;;;;;;;3.73;100.00;96012.94;5086960;28;20627;-61
2022/02/17 01:44:40;;;;;;;47.35;33.92;;;;;;;3.73;100.00;96021.59;5088575;28;20039;-62
2022/02/17 01:47:13;;;;;;;47.15;32.75;;;;;;;3.72;100.00;96013.88;5088148;28;20035;-62
2022/02/17 01:49:39;;;;;;;43.83;30.98;;;;;;;3.71;100.00;96012.19;5085367;28;20125;-62
2022/02/17 01:52:06;;;;;;;44.85;32.97;;;;;;;3.70;100.00;96008.78;5084711;28;20483;-62
2022/02/17 01:54:34;;;;;;;38.35;30.35;;;;;;;3.67;100.00;96008.09;5086572;28;20024;-62
2022/02/17 01:57:06;;;;;;;42.28;30.77;;;;;;;3.69;100.00;96022.72;5076371;28;20032;-62
2022/02/17 01:59:32;;;;;;;47.78;33.50;;;;;;;3.70;100.00;96024.41;5081597;28;20095;-62
2022/02/17 02:01:57;;;;;;;43.65;33.28;;;;;;;3.73;100.00;96005.13;5088019;28;20155;-61
2022/02/17 02:04:23;;;;;;;40.95;30.98;;;;;;;3.83;100.00;96006.25;5068382;28;20021;-62
2022/02/17 02:06:48;;;;;;;40.63;32.55;;;;;;;3.82;100.00;96017.63;5083677;28;20424;-61
2022/02/17 02:09:16;;;;;;;39.58;30.75;;;;;;;3.92;100.00;96023.09;5077651;28;20123;-61
2022/02/17 02:11:42;;;;;;;42.80;33.42;;;;;;;3.89;100.00;96027.66;5086676;28;20461;-61
2022/02/17 02:14:18;;;;;;;47.22;35.22;;;;;;;3.88;100.00;96011.22;5084682;28;20039;-62
2022/02/17 02:16:45;;;;;;;44.25;33.60;;;;;;;3.80;100.00;96021.22;5084427;28;20438;-61
2022/02/17 02:19:13;;;;;;;41.20;30.98;;;;;;;3.77;100.00;96021.41;5087215;28;20427;-61
2022/02/17 02:21:38;;;;;;;40.17;32.85;;;;;;;3.76;100.00;96027.56;5084675;28;20065;-61
2022/02/17 02:24:04;;;;;;;41.22;31.48;;;;;;;3.72;100.00;96025.13;5089622;28;20040;-61
2022/02/17 02:26:30;;;;;;;42.90;32.63;;;;;;;3.73;100.00;96025.97;5083944;28;20093;-61
2022/02/17 02:28:55;;;;;;;45.83;33.60;;;;;;;3.70;100.00;96037.41;5079865;28;20027;-62
2022/02/17 02:31:22;;;;;;;44.30;32.72;;;;;;;3.79;100.00;96038.63;5085924;28;20041;-61
2022/02/17 02:33:48;;;;;;;47.17;32.78;;;;;;;3.89;100.00;96038.94;5083018;28;20021;-61
2022/02/17 02:36:13;;;;;;;45.75;31.85;;;;;;;3.85;100.00;96050.44;5086271;28;20507;-61
2022/02/17 02:38:39;;;;;;;52.97;34.63;;;;;;;3.87;100.00;96051.22;5083169;28;20090;-61
2022/02/17 02:41:05;;;;;;;59.90;37.30;;;;;;;3.83;100.00;96028.84;5051253;28;20496;-62
2022/02/17 02:43:30;;;;;;;64.65;41.50;;;;;;;3.96;100.00;96010.72;5088448;28;20151;-61
2022/02/17 02:45:56;;;;;;;58.80;39.17;;;;;;;3.86;100.00;96010.44;5077834;28;20067;-61
2022/02/17 02:48:21;;;;;;;59.13;38.30;;;;;;;3.81;100.00;96002.91;5083531;28;20047;-62
2022/02/17 02:50:47;;;;;;;52.38;36.53;;;;;;;3.77;100.00;95993.63;5086874;28;20448;-61
2022/02/17 02:53:14;;;;;;;41.10;29.92;;;;;;;3.75;100.00;95981.59;5086842;28;20078;-61
2022/02/17 02:55:43;;;;;;;41.83;31.30;;;;;;;3.65;100.00;95963.09;5086098;28;20024;-61
2022/02/17 02:58:09;;;;;;;38.10;29.48;;;;;;;3.63;100.00;95950.16;5080449;28;20070;-61
2022/02/17 03:00:34;;;;;;;58.13;45.05;;;;;;;3.66;100.00;95947.41;5082162;28;20059;-61
2022/02/17 03:03:00;;;;;;;70.10;50.63;;;;;;;3.57;100.00;95946.19;5081727;28;20024;-61
2022/02/17 03:05:25;;;;;;;55.47;38.58;;;;;;;3.54;100.00;95948.13;5087645;28;20440;-61
2022/02/17 03:07:52;;;;;;;39.63;29.63;;;;;;;3.54;100.00;95951.56;5071469;28;20031;-61
2022/02/17 03:10:18;;;;;;;37.28;28.60;;;;;;;3.60;100.00;95952.13;5078020;28;20024;-62
2022/02/17 03:12:43;;;;;;;37.58;27.55;;;;;;;3.50;100.00;95951.84;5084926;28;20028;-62
2022/02/17 03:15:10;;;;;;;33.63;26.20;;;;;;;3.43;100.00;95935.75;5082151;28;20058;-61
2022/02/17 03:17:35;;;;;;;30.95;23.67;;;;;;;3.41;100.00;95932.41;5066841;28;20040;-62
2022/02/17 03:20:01;;;;;;;30.33;24.45;;;;;;;3.44;100.00;95927.84;5081116;28;20112;-61
2022/02/17 03:22:27;;;;;;;26.35;20.92;;;;;;;3.43;100.00;95915.78;5086309;28;20403;-61
2022/02/17 03:24:52;;;;;;;26.58;21.73;;;;;;;3.60;100.00;95900.88;5090000;28;20082;-61
2022/02/17 03:27:18;;;;;;;25.52;20.63;;;;;;;3.60;100.00;95913.91;5087385;28;20471;-62
2022/02/17 03:29:43;;;;;;;27.95;21.58;;;;;;;3.58;100.00;95936.59;5086740;28;20028;-61
2022/02/17 03:32:09;;;;;;;29.05;20.35;;;;;;;3.75;100.00;95960.78;5085584;28;20107;-62
2022/02/17 03:34:34;;;;;;;22.90;17.35;;;;;;;4.27;100.00;95974.97;5087938;28;20025;-62
2022/02/17 03:36:59;;;;;;;26.02;18.17;;;;;;;4.61;100.00;95979.81;5089680;28;20020;-62
2022/02/17 03:39:25;;;;;;;12.10;9.85;;;;;;;4.92;100.00;95978.69;5086365;28;20020;-62
2022/02/17 03:41:50;;;;;;;19.48;14.82;;;;;;;4.73;100.00;95968.56;5081675;28;20722;-62
2022/02/17 03:44:15;;;;;;;32.75;21.27;;;;;;;4.48;100.00;95951.91;5091989;28;20019;-62
2022/02/17 03:46:41;;;;;;;31.25;18.02;;;;;;;4.33;100.00;95947.69;5089907;28;20028;-62
2022/02/17 03:49:07;;;;;;;29.85;20.05;;;;;;;4.26;100.00;95923.78;5087590;28;20077;-61
2022/02/17 03:51:33;;;;;;;26.65;18.02;;;;;;;4.29;100.00;95921.78;5080182;28;20028;-62
2022/02/17 03:53:58;;;;;;;25.35;18.98;;;;;;;4.30;100.00;95907.81;5091600;28;20020;-62
2022/02/17 03:56:24;;;;;;;22.27;18.73;;;;;;;4.50;100.00;95917.91;5087496;28;20032;-62
2022/02/17 03:59:01;;;;;;;28.20;20.65;;;;;;;4.39;100.00;95905.56;5082534;28;20077;-62
2022/02/17 04:01:28;;;;;;;27.45;21.45;;;;;;;4.25;100.00;95906.47;5079351;28;20036;-62
2022/02/17 04:03:53;;;;;;;27.70;21.58;;;;;;;4.11;100.00;95920.38;5089808;28;20932;-62
2022/02/17 04:06:19;;;;;;;25.27;20.23;;;;;;;4.08;100.00;95924.00;5089648;28;20119;-62
2022/02/17 04:08:44;;;;;;;22.15;18.27;;;;;;;4.13;100.00;95942.78;5083681;28;20020;-62
2022/02/17 04:11:10;;;;;;;29.58;21.23;;;;;;;4.26;100.00;95927.19;5078695;28;20020;-62
2022/02/17 04:13:35;;;;;;;24.75;19.77;;;;;;;4.39;100.00;95927.25;5084677;28;20115;-62
2022/02/17 04:16:01;;;;;;;28.00;19.42;;;;;;;4.30;100.00;95926.06;5085523;28;20028;-62
2022/02/17 04:18:27;;;;;;;25.95;21.00;;;;;;;4.29;100.00;95927.00;5085833;28;20055;-62
2022/02/17 04:20:52;;;;;;;26.75;21.20;;;;;;;4.37;100.00;95925.69;5068000;28;20020;-62
2022/02/17 04:23:18;;;;;;;28.02;21.25;;;;;;;4.36;100.00;95931.84;5087207;28;20020;-62
2022/02/17 04:25:44;;;;;;;26.92;20.65;;;;;;;4.34;100.00;95955.38;5081333;28;20407;-62
2022/02/17 04:28:09;;;;;;;25.00;20.88;;;;;;;4.33;100.00;95965.94;5091692;28;20024;-62
2022/02/17 04:30:35;;;;;;;22.77;19.38;;;;;;;4.37;100.00;95970.00;5090403;28;20035;-62
2022/02/17 04:33:02;;;;;;;25.00;20.40;;;;;;;4.35;100.00;95972.69;5085380;28;20044;-62
2022/02/17 04:35:28;;;;;;;23.55;19.23;;;;;;;4.32;100.00;95977.28;5087410;28;20032;-62
2022/02/17 04:37:53;;;;;;;26.65;18.85;;;;;;;4.29;100.00;95983.53;5088817;28;20466;-62
2022/02/17 04:40:18;;;;;;;25.15;19.67;;;;;;;4.26;100.00;95989.75;5089010;28;20464;-62
2022/02/17 04:42:44;;;;;;;23.73;19.95;;;;;;;4.37;100.00;96011.72;5085156;28;20039;-62
2022/02/17 04:45:09;;;;;;;26.70;20.55;;;;;;;4.40;100.00;96016.75;5088889;28;20120;-62
2022/02/17 04:47:35;;;;;;;54.00;40.67;;;;;;;4.40;100.00;96014.97;5084648;28;20037;-62
2022/02/17 04:50:00;;;;;;;36.05;27.73;;;;;;;4.43;100.00;95995.69;5086701;28;20031;-62
2022/02/17 04:52:26;;;;;;;35.28;27.20;;;;;;;4.38;100.00;95992.53;5086622;28;20103;-62
2022/02/17 04:54:52;;;;;;;32.97;27.10;;;;;;;4.33;100.00;95998.03;5089614;28;20114;-62
2022/02/17 04:57:18;;;;;;;31.77;26.02;;;;;;;4.29;100.00;95999.16;5085502;28;20063;-62
2022/02/17 04:59:44;;;;;;;34.25;25.35;;;;;;;4.29;100.00;96004.38;5084910;28;20500;-62
2022/02/17 05:02:09;;;;;;;29.67;25.33;;;;;;;4.35;100.00;96003.97;5085290;28;20024;-61
2022/02/17 05:04:35;;;;;;;29.70;24.63;;;;;;;4.34;100.00;95998.88;5085719;28;20032;-60
2022/02/17 05:07:00;;;;;;;27.33;22.00;;;;;;;4.39;100.00;95996.81;5089011;28;20026;-61
2022/02/17 05:09:26;;;;;;;27.10;23.13;;;;;;;4.37;100.00;95991.69;5088857;28;20024;-61
2022/02/17 05:11:51;;;;;;;32.58;24.88;;;;;;;4.33;100.00;95994.59;5066670;28;20075;-62
2022/02/17 05:14:17;;;;;;;28.45;23.05;;;;;;;4.30;100.00;95996.44;5085929;28;20028;-62
2022/02/17 05:16:42;;;;;;;26.95;23.42;;;;;;;4.31;100.00;95986.88;5089078;28;20460;-61
2022/02/17 05:19:07;;;;;;;28.50;23.27;;;;;;;4.32;100.00;95988.53;5088562;28;20036;-62
2022/02/17 05:21:33;;;;;;;27.08;23.10;;;;;;;4.34;100.00;95991.06;5078925;28;20248;-62
2022/02/17 05:23:58;;;;;;;30.00;23.80;;;;;;;4.32;100.00;95992.94;5091939;28;20031;-62
2022/02/17 05:26:23;;;;;;;27.83;22.98;;;;;;;4.34;100.00;96001.50;5083465;28;20491;-62
2022/02/17 05:28:49;;;;;;;27.45;22.80;;;;;;;4.39;100.00;96004.63;5088407;28;20396;-62
2022/02/17 05:31:14;;;;;;;26.70;23.45;;;;;;;4.41;100.00;95994.94;5082317;28;20556;-62
2022/02/17 05:33:40;;;;;;;27.17;21.50;;;;;;;4.44;100.00;96005.19;5084535;28;20039;-62
2022/02/17 05:36:06;;;;;;;24.33;21.58;;;;;;;4.43;100.00;96006.13;5090485;28;20081;-62
2022/02/17 05:38:31;;;;;;;31.38;26.55;;;;;;;4.40;100.00;96014.13;5087454;28;20032;-63
2022/02/17 05:40:56;;;;;;;33.78;24.42;;;;;;;4.49;100.00;96015.34;5081875;28;20082;-62
2022/02/17 05:43:22;;;;;;;29.33;23.60;;;;;;;4.50;100.00;96003.97;5078667;28;20032;-62
2022/02/17 05:45:47;;;;;;;27.80;22.63;;;;;;;4.52;100.00;96002.09;5083399;28;20040;-62
2022/02/17 05:48:13;;;;;;;40.13;29.73;;;;;;;4.54;100.00;95992.41;5086968;28;20024;-62
2022/02/17 05:50:38;;;;;;;35.97;28.10;;;;;;;4.58;100.00;96004.31;5084506;28;20101;-62
2022/02/17 05:53:04;;;;;;;33.00;27.98;;;;;;;4.56;100.00;96004.41;5082669;28;20548;-62
2022/02/17 05:55:29;;;;;;;28.95;25.85;;;;;;;4.52;100.00;96002.91;5084525;28;20027;-62
2022/02/17 05:57:55;;;;;;;28.90;25.00;;;;;;;4.52;100.00;96002.91;5083246;28;20028;-62
2022/02/17 06:00:21;;;;;;;34.67;25.55;;;;;;;4.51;100.00;95993.41;5079600;28;20108;-62
2022/02/17 06:02:46;;;;;;;31.45;21.75;;;;;;;4.55;100.00;95997.53;5084683;28;20024;-62
2022/02/17 06:05:12;;;;;;;26.65;22.20;;;;;;;4.55;100.00;96004.50;5083214;28;20077;-62
2022/02/17 06:07:38;;;;;;;26.77;20.70;;;;;;;4.55;100.00;96007.97;5084825;28;20547;-63
2022/02/17 06:10:05;;;;;;;23.17;19.27;;;;;;;4.57;100.00;96015.66;5082125;28;20051;-62
2022/02/17 06:12:31;;;;;;;22.20;19.75;;;;;;;4.61;100.00;96018.94;5087018;28;20036;-62
2022/02/17 06:14:56;;;;;;;19.23;17.13;;;;;;;4.68;100.00;96015.00;5082695;28;20032;-62
2022/02/17 06:17:22;;;;;;;20.73;16.65;;;;;;;4.73;100.00;96018.13;5076421;28;20526;-62
2022/02/17 06:19:48;;;;;;;19.80;16.75;;;;;;;4.73;100.00;96023.34;5087751;28;20044;-62
2022/02/17 06:22:13;;;;;;;21.38;18.70;;;;;;;4.71;100.00;96025.22;5087236;28;20016;-62
2022/02/17 06:24:38;;;;;;;19.85;17.25;;;;;;;4.75;100.00;96029.31;5081083;28;20036;-63
2022/02/17 06:27:04;;;;;;;18.50;16.70;;;;;;;4.79;100.00;96032.56;5084993;28;20056;-62
2022/02/17 06:29:29;;;;;;;19.65;17.35;;;;;;;4.84;100.00;96040.94;5083133;28;20384;-62
2022/02/17 06:31:55;;;;;;;27.67;18.85;;;;;;;4.85;100.00;96051.28;5088421;28;20054;-62
2022/02/17 06:34:21;;;;;;;28.42;20.40;;;;;;;4.91;100.00;96051.81;5082365;28;20484;-62
2022/02/17 06:36:48;;;;;;;30.73;21.02;;;;;;;5.00;100.00;96056.47;5083215;28;20112;-62
2022/02/17 06:39:14;;;;;;;26.15;17.85;;;;;;;5.02;100.00;96059.81;5084918;28;20031;-62
2022/02/17 06:41:40;;;;;;;26.75;19.10;;;;;;;5.04;100.00;96059.69;5079535;28;20146;-62
2022/02/17 06:44:06;;;;;;;22.88;18.08;;;;;;;4.99;100.00;96067.84;5080640;28;20028;-62
2022/02/17 06:46:34;;;;;;;21.77;18.65;;;;;;;4.98;100.00;96076.59;5064927;28;20414;-62
2022/02/17 06:49:01;;;;;;;20.50;17.80;;;;;;;4.97;100.00;96067.94;5086624;28;20403;-62
2022/02/17 06:51:26;;;;;;;21.13;18.00;;;;;;;4.93;100.00;96076.03;5083826;28;20052;-62
2022/02/17 06:53:53;;;;;;;20.73;16.23;;;;;;;4.96;100.00;96086.28;5080423;28;20063;-62
2022/02/17 06:56:19;;;;;;;21.95;18.80;;;;;;;5.01;100.00;96085.06;5090096;28;20024;-62
2022/02/17 06:58:44;;;;;;;21.92;18.45;;;;;;;4.96;100.00;96094.09;5090612;28;20133;-62
2022/02/17 07:01:09;;;;;;;18.95;17.08;;;;;;;4.92;100.00;96092.63;5087973;28;20073;-62
2022/02/17 07:03:35;;;;;;;22.05;17.50;;;;;;;4.88;100.00;96092.84;5089783;28;20020;-62
2022/02/17 07:06:01;;;;;;;22.17;18.65;;;;;;;4.86;100.00;96102.53;5088040;28;20035;-60
2022/02/17 07:08:26;;;;;;;26.63;21.60;;;;;;;4.88;100.00;96098.06;5078289;28;20098;-61
2022/02/17 07:10:54;;;;;;;24.25;20.13;;;;;;;4.86;100.00;96106.91;5085605;28;20538;-60
2022/02/17 07:13:21;;;;;;;25.80;20.67;;;;;;;4.88;100.00;96110.28;5091259;28;20031;-59
2022/02/17 07:15:48;;;;;;;23.90;20.70;;;;;;;4.90;100.00;96116.22;5085523;28;20578;-60
2022/02/17 07:18:16;;;;;;;22.23;19.77;;;;;;;4.87;100.00;96122.47;5081553;28;20120;-59
2022/02/17 07:20:44;;;;;;;27.05;24.17;;;;;;;4.88;100.00;96129.34;5090109;28;20040;-60
2022/02/17 07:23:10;;;;;;;44.55;26.58;;;;;;;4.91;100.00;96120.50;5089060;28;20070;-59
2022/02/17 07:25:35;;;;;;;30.80;25.67;;;;;;;4.94;100.00;96128.16;5086322;28;20059;-60
2022/02/17 07:28:01;;;;;;;64.95;45.72;;;;;;;5.02;100.00;96125.06;5095866;28;20498;-59
2022/02/17 07:30:26;;;;;;;73.97;59.97;;;;;;;5.14;100.00;96124.25;5093863;28;20081;-60
2022/02/17 07:32:52;;;;;;;67.90;54.40;;;;;;;5.19;100.00;96121.38;5076455;28;20025;-60
2022/02/17 07:35:18;;;;;;;53.05;44.83;;;;;;;5.25;100.00;96113.13;5089806;28;20048;-60
2022/02/17 07:37:43;;;;;;;49.67;38.70;;;;;;;5.33;100.00;96110.03;5085853;28;20048;-60
2022/02/17 07:40:11;;;;;;;41.65;34.35;;;;;;;5.35;100.00;96110.75;5086735;28;20081;-60
2022/02/17 07:42:37;;;;;;;47.83;36.80;;;;;;;5.33;100.00;96110.03;5084865;28;20127;-60
2022/02/17 07:45:03;;;;;;;42.65;34.97;;;;;;;5.36;100.00;96115.06;5086661;28;20036;-61
2022/02/17 07:47:29;;;;;;;62.08;46.08;;;;;;;5.32;100.00;96115.38;5090340;28;20028;-61
2022/02/17 07:49:56;;;;;;;54.13;45.97;;;;;;;5.37;100.00;96106.28;5086068;28;20051;-61
2022/02/17 07:52:25;;;;;;;47.50;38.63;;;;;;;5.41;100.00;96109.53;5083715;28;20108;-60
2022/02/17 07:54:51;;;;;;;43.63;37.15;;;;;;;5.58;100.00;96116.25;5086291;28;20089;-60
2022/02/17 07:57:16;;;;;;;51.80;38.92;;;;;;;5.52;100.00;96114.88;5062433;28;20492;-60
2022/02/17 07:59:42;;;;;;;39.33;32.75;;;;;;;5.50;100.00;96108.09;5084094;28;20096;-60
2022/02/17 08:02:08;;;;;;;35.67;27.63;;;;;;;5.52;100.00;96114.88;5088016;28;20036;-60
2022/02/17 08:04:35;;;;;;;38.58;32.10;;;;;;;5.59;100.00;96128.38;5086593;28;20051;-60
2022/02/17 08:07:04;;;;;;;27.80;24.88;;;;;;;5.69;100.00;96146.91;5081354;28;20035;-59
2022/02/17 08:09:30;;;;;;;32.95;28.67;;;;;;;5.63;100.00;96142.09;5083868;28;20028;-60
2022/02/17 08:11:55;;;;;;;29.13;26.00;;;;;;;5.64;100.00;96165.53;5085776;28;20695;-60
2022/02/17 08:14:21;;;;;;;26.52;23.55;;;;;;;5.65;100.00;96161.97;5089884;28;20024;-60
2022/02/17 08:16:46;;;;;;;30.13;23.30;;;;;;;5.63;100.00;96169.03;5083490;28;20060;-59
2022/02/17 08:19:11;;;;;;;26.30;22.13;;;;;;;5.72;100.00;96170.22;5078826;28;20048;-60
2022/02/17 08:21:37;;;;;;;23.33;18.33;;;;;;;5.74;100.00;96181.41;5090410;28;20035;-60
2022/02/17 08:24:03;;;;;;;21.42;16.33;;;;;;;5.85;100.00;96172.84;5082618;28;20055;-60
2022/02/17 08:26:28;;;;;;;26.52;23.00;;;;;;;5.97;100.00;96161.63;5083973;28;20113;-61
2022/02/17 08:28:57;;;;;;;27.65;24.40;;;;;;;6.15;100.00;96174.44;5089656;28;20148;-60
2022/02/17 08:31:23;;;;;;;27.88;24.95;;;;;;;5.95;100.00;96162.63;5084540;28;20036;-60
2022/02/17 08:33:49;;;;;;;27.90;25.15;;;;;;;5.81;100.00;96145.25;5079968;28;20071;-60
2022/02/17 08:36:15;;;;;;;24.40;22.00;;;;;;;5.89;100.00;96137.78;5089028;28;20107;-60
2022/02/17 08:38:41;;;;;;;28.35;25.27;;;;;;;5.86;100.00;96135.38;5095026;28;20036;-60
2022/02/17 08:41:08;;;;;;;25.83;23.20;;;;;;;5.90;100.00;96134.22;5089072;28;20024;-61
2022/02/17 08:43:34;;;;;;;25.48;22.88;;;;;;;5.89;100.00;96140.38;5093320;28;20036;-60
2022/02/17 08:46:00;;;;;;;25.00;22.33;;;;;;;5.91;100.00;96133.28;5091277;28;20027;-60
2022/02/17 08:48:25;;;;;;;22.65;20.38;;;;;;;5.97;100.00;96124.19;5095838;28;20031;-60
2022/02/17 08:50:51;;;;;;;20.75;18.80;;;;;;;5.99;100.00;96133.59;5098053;28;20067;-60
2022/02/17 08:53:17;;;;;;;22.58;20.27;;;;;;;6.01;100.00;96131.75;5099229;28;20021;-60
2022/02/17 08:55:42;;;;;;;22.98;20.65;;;;;;;6.03;100.00;96126.44;5092210;28;20024;-60
2022/02/17 08:58:07;;;;;;;26.23;20.88;;;;;;;6.05;100.00;96145.44;5103446;28;20062;-60
2022/02/17 09:00:33;;;;;;;17.35;15.70;;;;;;;6.69;100.00;96152.47;5098018;28;20128;-60
2022/02/17 09:02:59;;;;;;;20.92;18.95;;;;;;;6.55;100.00;96156.03;5100206;28;20089;-60
2022/02/17 09:05:24;;;;;;;20.95;18.88;;;;;;;6.73;100.00;96168.78;5090302;28;20134;-60
2022/02/17 09:07:50;;;;;;;19.05;17.13;;;;;;;6.92;100.00;96157.88;5088702;28;20032;-60
2022/02/17 09:10:16;;;;;;;22.48;18.80;;;;;;;6.83;100.00;96161.97;5092830;28;20027;-59
2022/02/17 09:12:42;;;;;;;19.55;17.60;;;;;;;6.76;100.00;96165.97;5092141;28;20042;-59
2022/02/17 09:15:09;;;;;;;21.73;17.15;;;;;;;6.82;100.00;96170.78;5091619;28;20021;-59
2022/02/17 09:17:35;;;;;;;19.42;15.40;;;;;;;6.71;100.00;96178.50;5088358;28;20052;-59
2022/02/17 09:20:00;;;;;;;17.83;16.00;;;;;;;6.66;100.00;96175.38;5092662;28;20110;-60
2022/02/17 09:22:26;;;;;;;20.80;18.60;;;;;;;6.65;100.00;96182.41;5091494;28;20020;-59
2022/02/17 09:24:52;;;;;;;14.93;13.57;;;;;;;6.72;100.00;96182.81;5093999;28;20055;-59
2022/02/17 09:27:17;;;;;;;12.77;11.57;;;;;;;6.74;100.00;96175.69;5090689;28;20028;-59
2022/02/17 09:29:42;;;;;;;13.82;12.52;;;;;;;6.85;100.00;96182.78;5091890;28;20020;-59
2022/02/17 09:32:09;;;;;;;18.98;15.30;;;;;;;6.91;100.00;96177.13;5088373;28;20031;-59
2022/02/17 09:34:37;;;;;;;14.93;12.88;;;;;;;6.94;100.00;96186.53;5089472;28;20027;-60
2022/02/17 09:37:03;;;;;;;17.48;11.80;;;;;;;6.91;100.00;96195.47;5091061;28;20028;-60
2022/02/17 09:39:29;;;;;;;13.63;12.52;;;;;;;6.94;100.00;96202.25;5092122;28;20036;-60
2022/02/17 09:41:55;;;;;;;19.40;17.58;;;;;;;6.96;100.00;96216.06;5088628;28;20035;-59
2022/02/17 09:44:21;;;;;;;22.55;20.30;;;;;;;6.77;100.00;96224.38;5091732;28;20523;-60
2022/02/17 09:46:48;;;;;;;22.92;20.58;;;;;;;6.59;100.00;96225.53;5089353;28;20047;-60
2022/02/17 09:49:18;;;;;;;24.17;21.55;;;;;;;6.68;100.00;96210.13;5090725;28;20111;-60
2022/02/17 09:51:44;;;;;;;24.52;22.05;;;;;;;6.59;100.00;96207.22;5089807;28;20036;-60
2022/02/17 09:54:10;;;;;;;25.67;22.90;;;;;;;6.45;100.00;96208.16;5090733;28;20036;-60
2022/02/17 09:56:37;;;;;;;24.58;22.17;;;;;;;6.37;100.00;96194.72;5085235;28;20538;-60
2022/02/17 09:59:03;;;;;;;25.05;22.65;;;;;;;6.50;100.00;96204.38;5092569;28;20027;-59
2022/02/17 10:01:30;;;;;;;25.88;23.25;;;;;;;6.58;100.00;96212.53;5086524;28;20012;-59
2022/02/17 10:04:17;;;;;;;24.60;22.30;;;;;;;6.53;100.00;96212.00;5089521;28;20035;-59
2022/02/17 10:06:48;;;;;;;22.90;20.55;;;;;;;6.51;100.00;96209.50;5090810;28;20114;-60
2022/02/17 10:09:15;;;;;;;21.77;19.77;;;;;;;6.55;100.00;96213.59;5090376;28;20035;-60
2022/02/17 10:11:42;;;;;;;26.75;24.08;;;;;;;6.67;100.00;96211.06;5086713;28;20668;-60
2022/02/17 10:14:18;;;;;;;25.40;22.88;;;;;;;6.97;100.00;96215.16;5090389;28;20020;-60
2022/02/17 10:17:14;;;;;;;20.30;18.23;;;;;;;7.42;100.00;96215.47;5089987;28;20019;-60
2022/02/17 10:19:47;;;;;;;17.17;15.63;;;;;;;7.63;100.00;96225.38;5080323;28;20048;-60
2022/02/17 10:22:15;;;;;;;17.30;15.77;;;;;;;7.77;100.00;96241.84;5088426;28;20034;-59
2022/02/17 10:24:44;;;;;;;16.48;14.98;;;;;;;7.88;100.00;96244.56;5089582;28;20040;-60
2022/02/17 10:27:12;;;;;;;16.05;14.45;;;;;;;8.16;100.00;96237.28;5086813;28;20035;-59
2022/02/17 10:29:39;;;;;;;15.55;14.13;;;;;;;8.44;100.00;96232.59;5089721;28;20066;-59
2022/02/17 10:32:10;;;;;;;17.75;16.05;;;;;;;8.94;100.00;96229.72;5090085;28;20016;-59
2022/02/17 10:34:36;;;;;;;14.02;12.63;;;;;;;9.67;100.00;96221.41;5087047;28;20052;-60
2022/02/17 10:37:02;;;;;;;11.98;10.77;;;;;;;9.88;100.00;96210.13;5090137;28;20055;-59
2022/02/17 10:39:33;;;;;;;12.50;11.43;;;;;;;10.29;100.00;96207.69;5093566;28;20024;-60
2022/02/17 10:42:04;;;;;;;9.05;8.35;;;;;;;10.97;96.80;96211.72;5096534;28;20056;-60
2022/02/17 10:44:34;;;;;;;7.70;6.93;;;;;;;11.00;95.43;96199.09;5075558;28;20016;-59
2022/02/17 10:47:19;;;;;;;6.78;6.28;;;;;;;10.86;97.38;96189.75;5094117;28;20111;-60
2022/02/17 10:49:50;;;;;;;8.15;7.30;;;;;;;10.66;96.63;96198.50;5094064;28;20034;-60
2022/02/17 10:52:30;;;;;;;6.97;6.47;;;;;;;10.29;95.97;96187.47;5092755;28;20048;-60
2022/02/17 10:55:18;;;;;;;7.63;7.03;;;;;;;10.20;98.09;96190.03;5093306;28;20024;-59
2022/02/17 10:57:45;;;;;;;6.43;5.82;;;;;;;10.48;99.90;96196.47;5097359;28;20107;-59
2022/02/17 11:00:13;;;;;;;5.78;5.38;;;;;;;10.59;97.16;96195.56;5090733;28;20020;-59
2022/02/17 11:02:39;;;;;;;5.07;4.68;;;;;;;11.13;97.03;96201.50;5092564;28;20035;-62
2022/02/17 11:05:11;;;;;;;7.75;7.13;;;;;;;11.84;93.87;96209.47;5089329;28;20153;-61
2022/02/17 11:07:41;;;;;;;7.38;6.70;;;;;;;12.11;89.10;96205.34;5087945;28;20024;-61
2022/02/17 11:10:08;;;;;;;9.30;8.18;;;;;;;12.20;91.76;96196.59;5090538;28;20030;-60
2022/02/17 11:12:35;;;;;;;9.07;8.27;;;;;;;12.31;91.45;96199.09;5092079;28;20110;-59